sensor_id;sensor_type;location;lat;lon;timestamp;P1;durP1;ratioP1;P2;durP2;ratioP2
73693;SDS011;61997;53.974;11.670;2023-03-29T00:00:11;11.10;;;7.82;;
73693;SDS011;61997;53.974;11.670;2023-03-29T00:02:41;9.32;;;6.60;;
73693;SDS011;61997;53.974;11.670;2023-03-29T00:05:07;11.70;;;7.65;;
73693;SDS011;61997;53.974;11.670;2023-03-29T00:07:34;11.13;;;6.75;;
73693;SDS011;61997;53.974;11.670;2023-03-29T00:10:01;10.85;;;7.20;;
73693;SDS011;61997;53.974;11.670;2023-03-29T00:12:29;10.57;;;7.78;;
73693;SDS011;61997;53.974;11.670;2023-03-29T00:14:56;12.35;;;6.90;;
73693;SDS011;61997;53.974;11.670;2023-03-29T00:17:22;11.30;;;6.97;;
73693;SDS011;61997;53.974;11.670;2023-03-29T00:19:47;11.23;;;6.80;;
73693;SDS011;61997;53.974;11.670;2023-03-29T00:22:13;9.90;;;6.75;;
73693;SDS011;61997;53.974;11.670;2023-03-29T00:24:39;9.90;;;7.70;;
73693;SDS011;61997;53.974;11.670;2023-03-29T00:27:04;11.55;;;7.13;;
73693;SDS011;61997;53.974;11.670;2023-03-29T00:29:30;13.25;;;7.18;;
73693;SDS011;61997;53.974;11.670;2023-03-29T00:31:56;11.30;;;6.78;;
73693;SDS011;61997;53.974;11.670;2023-03-29T00:34:22;7.60;;;6.50;;
73693;SDS011;61997;53.974;11.670;2023-03-29T00:36:48;10.70;;;7.20;;
73693;SDS011;61997;53.974;11.670;2023-03-29T00:39:16;12.05;;;7.30;;
73693;SDS011;61997;53.974;11.670;2023-03-29T00:41:45;9.07;;;6.40;;
73693;SDS011;61997;53.974;11.670;2023-03-29T00:47:14;11.05;;;7.20;;
73693;SDS011;61997;53.974;11.670;2023-03-29T00:49:42;9.48;;;6.28;;
73693;SDS011;61997;53.974;11.670;2023-03-29T00:52:08;12.10;;;6.68;;
73693;SDS011;61997;53.974;11.670;2023-03-29T00:54:34;10.02;;;6.55;;
73693;SDS011;61997;53.974;11.670;2023-03-29T00:57:02;10.65;;;6.80;;
73693;SDS011;61997;53.974;11.670;2023-03-29T00:59:29;11.20;;;6.25;;
73693;SDS011;61997;53.974;11.670;2023-03-29T01:01:56;10.10;;;6.55;;
73693;SDS011;61997;53.974;11.670;2023-03-29T01:06:58;12.23;;;7.13;;
73693;SDS011;61997;53.974;11.670;2023-03-29T01:09:31;11.15;;;6.38;;
73693;SDS011;61997;53.974;11.670;2023-03-29T01:12:00;10.32;;;6.72;;
73693;SDS011;61997;53.974;11.670;2023-03-29T01:14:34;9.60;;;6.75;;
73693;SDS011;61997;53.974;11.670;2023-03-29T01:17:02;8.73;;;5.95;;
73693;SDS011;61997;53.974;11.670;2023-03-29T01:19:30;8.73;;;5.65;;
73693;SDS011;61997;53.974;11.670;2023-03-29T01:22:00;9.73;;;6.45;;
73693;SDS011;61997;53.974;11.670;2023-03-29T01:24:43;10.50;;;6.15;;
73693;SDS011;61997;53.974;11.670;2023-03-29T01:33:05;9.00;;;5.22;;
73693;SDS011;61997;53.974;11.670;2023-03-29T01:35:39;8.15;;;6.35;;
73693;SDS011;61997;53.974;11.670;2023-03-29T01:40:39;8.90;;;5.78;;
73693;SDS011;61997;53.974;11.670;2023-03-29T01:51:33;7.68;;;4.95;;
73693;SDS011;61997;53.974;11.670;2023-03-29T01:54:08;8.65;;;5.45;;
73693;SDS011;61997;53.974;11.670;2023-03-29T01:56:45;7.57;;;5.55;;
73693;SDS011;61997;53.974;11.670;2023-03-29T01:59:14;8.60;;;5.70;;
73693;SDS011;61997;53.974;11.670;2023-03-29T02:01:44;10.02;;;5.72;;
73693;SDS011;61997;53.974;11.670;2023-03-29T02:06:58;7.22;;;5.13;;
73693;SDS011;61997;53.974;11.670;2023-03-29T02:09:25;7.25;;;4.80;;
73693;SDS011;61997;53.974;11.670;2023-03-29T02:11:52;9.88;;;5.20;;
73693;SDS011;61997;53.974;11.670;2023-03-29T02:14:21;7.45;;;5.20;;
73693;SDS011;61997;53.974;11.670;2023-03-29T02:16:48;5.70;;;4.63;;
73693;SDS011;61997;53.974;11.670;2023-03-29T02:19:13;6.63;;;4.65;;
73693;SDS011;61997;53.974;11.670;2023-03-29T02:24:28;7.38;;;4.90;;
73693;SDS011;61997;53.974;11.670;2023-03-29T02:26:56;7.20;;;5.13;;
73693;SDS011;61997;53.974;11.670;2023-03-29T02:29:22;9.52;;;5.30;;
73693;SDS011;61997;53.974;11.670;2023-03-29T02:31:49;7.32;;;4.43;;
73693;SDS011;61997;53.974;11.670;2023-03-29T02:37:11;7.60;;;4.70;;
73693;SDS011;61997;53.974;11.670;2023-03-29T02:39:39;7.30;;;4.55;;
73693;SDS011;61997;53.974;11.670;2023-03-29T02:42:05;5.78;;;4.45;;
73693;SDS011;61997;53.974;11.670;2023-03-29T02:44:32;8.65;;;4.80;;
73693;SDS011;61997;53.974;11.670;2023-03-29T02:47:07;7.60;;;4.15;;
73693;SDS011;61997;53.974;11.670;2023-03-29T02:49:38;6.22;;;4.22;;
73693;SDS011;61997;53.974;11.670;2023-03-29T02:52:10;6.65;;;3.97;;
73693;SDS011;61997;53.974;11.670;2023-03-29T02:54:38;5.43;;;4.00;;
73693;SDS011;61997;53.974;11.670;2023-03-29T02:59:32;7.17;;;4.40;;
73693;SDS011;61997;53.974;11.670;2023-03-29T03:01:58;5.45;;;3.75;;
73693;SDS011;61997;53.974;11.670;2023-03-29T03:04:24;6.80;;;4.30;;
73693;SDS011;61997;53.974;11.670;2023-03-29T03:06:50;4.88;;;3.80;;
73693;SDS011;61997;53.974;11.670;2023-03-29T03:09:16;6.50;;;3.70;;
73693;SDS011;61997;53.974;11.670;2023-03-29T03:11:42;5.40;;;3.95;;
73693;SDS011;61997;53.974;11.670;2023-03-29T03:14:07;5.28;;;4.03;;
73693;SDS011;61997;53.974;11.670;2023-03-29T03:16:33;6.03;;;4.05;;
73693;SDS011;61997;53.974;11.670;2023-03-29T03:18:58;6.00;;;3.83;;
73693;SDS011;61997;53.974;11.670;2023-03-29T03:21:25;5.30;;;3.63;;
73693;SDS011;61997;53.974;11.670;2023-03-29T03:23:52;6.13;;;3.95;;
73693;SDS011;61997;53.974;11.670;2023-03-29T03:26:18;7.35;;;3.83;;
73693;SDS011;61997;53.974;11.670;2023-03-29T03:28:43;6.53;;;4.10;;
73693;SDS011;61997;53.974;11.670;2023-03-29T03:31:12;4.68;;;3.40;;
73693;SDS011;61997;53.974;11.670;2023-03-29T03:33:38;6.22;;;3.28;;
73693;SDS011;61997;53.974;11.670;2023-03-29T03:36:05;6.18;;;3.55;;
73693;SDS011;61997;53.974;11.670;2023-03-29T03:38:32;6.70;;;3.38;;
73693;SDS011;61997;53.974;11.670;2023-03-29T03:40:58;6.68;;;3.88;;
73693;SDS011;61997;53.974;11.670;2023-03-29T03:43:24;5.05;;;3.45;;
73693;SDS011;61997;53.974;11.670;2023-03-29T03:45:49;6.00;;;3.60;;
73693;SDS011;61997;53.974;11.670;2023-03-29T03:48:15;5.93;;;3.97;;
73693;SDS011;61997;53.974;11.670;2023-03-29T03:50:41;5.40;;;3.10;;
73693;SDS011;61997;53.974;11.670;2023-03-29T03:53:11;6.57;;;3.47;;
73693;SDS011;61997;53.974;11.670;2023-03-29T03:55:37;5.22;;;3.47;;
73693;SDS011;61997;53.974;11.670;2023-03-29T03:58:03;4.85;;;3.03;;
73693;SDS011;61997;53.974;11.670;2023-03-29T04:00:29;4.10;;;3.08;;
73693;SDS011;61997;53.974;11.670;2023-03-29T04:02:54;4.63;;;2.75;;
73693;SDS011;61997;53.974;11.670;2023-03-29T04:05:20;4.10;;;2.70;;
73693;SDS011;61997;53.974;11.670;2023-03-29T04:07:45;5.20;;;2.95;;
73693;SDS011;61997;53.974;11.670;2023-03-29T04:10:11;5.13;;;3.47;;
73693;SDS011;61997;53.974;11.670;2023-03-29T04:12:37;5.47;;;3.17;;
73693;SDS011;61997;53.974;11.670;2023-03-29T04:15:03;6.45;;;3.10;;
73693;SDS011;61997;53.974;11.670;2023-03-29T04:17:30;5.75;;;3.28;;
73693;SDS011;61997;53.974;11.670;2023-03-29T04:19:55;4.93;;;2.80;;
73693;SDS011;61997;53.974;11.670;2023-03-29T04:22:21;5.65;;;3.40;;
73693;SDS011;61997;53.974;11.670;2023-03-29T04:24:47;5.40;;;3.05;;
73693;SDS011;61997;53.974;11.670;2023-03-29T04:27:12;3.72;;;2.45;;
73693;SDS011;61997;53.974;11.670;2023-03-29T04:29:38;4.30;;;3.22;;
73693;SDS011;61997;53.974;11.670;2023-03-29T04:32:03;4.80;;;2.92;;
73693;SDS011;61997;53.974;11.670;2023-03-29T04:34:28;4.35;;;2.92;;
73693;SDS011;61997;53.974;11.670;2023-03-29T04:36:54;4.85;;;2.80;;
73693;SDS011;61997;53.974;11.670;2023-03-29T04:39:20;4.78;;;2.65;;
73693;SDS011;61997;53.974;11.670;2023-03-29T04:41:45;5.47;;;2.90;;
73693;SDS011;61997;53.974;11.670;2023-03-29T04:44:11;3.83;;;2.42;;
73693;SDS011;61997;53.974;11.670;2023-03-29T04:46:38;3.50;;;2.75;;
73693;SDS011;61997;53.974;11.670;2023-03-29T04:49:04;4.13;;;2.50;;
73693;SDS011;61997;53.974;11.670;2023-03-29T04:51:30;4.40;;;2.60;;
73693;SDS011;61997;53.974;11.670;2023-03-29T04:53:55;5.05;;;2.88;;
73693;SDS011;61997;53.974;11.670;2023-03-29T04:56:21;3.72;;;2.15;;
73693;SDS011;61997;53.974;11.670;2023-03-29T04:58:47;3.55;;;2.20;;
73693;SDS011;61997;53.974;11.670;2023-03-29T05:01:13;5.05;;;2.92;;
73693;SDS011;61997;53.974;11.670;2023-03-29T05:03:38;4.72;;;2.45;;
73693;SDS011;61997;53.974;11.670;2023-03-29T05:06:04;3.58;;;2.47;;
73693;SDS011;61997;53.974;11.670;2023-03-29T05:08:32;3.90;;;2.25;;
73693;SDS011;61997;53.974;11.670;2023-03-29T05:10:58;4.00;;;2.35;;
73693;SDS011;61997;53.974;11.670;2023-03-29T05:13:24;3.22;;;2.20;;
73693;SDS011;61997;53.974;11.670;2023-03-29T05:15:49;4.88;;;2.33;;
73693;SDS011;61997;53.974;11.670;2023-03-29T05:18:15;4.68;;;2.40;;
73693;SDS011;61997;53.974;11.670;2023-03-29T05:20:41;3.30;;;2.00;;
73693;SDS011;61997;53.974;11.670;2023-03-29T05:23:06;5.97;;;2.47;;
73693;SDS011;61997;53.974;11.670;2023-03-29T05:25:32;5.65;;;2.60;;
73693;SDS011;61997;53.974;11.670;2023-03-29T05:27:58;3.45;;;2.25;;
73693;SDS011;61997;53.974;11.670;2023-03-29T05:30:23;4.35;;;2.35;;
73693;SDS011;61997;53.974;11.670;2023-03-29T05:32:49;4.45;;;2.25;;
73693;SDS011;61997;53.974;11.670;2023-03-29T05:35:14;3.33;;;2.40;;
73693;SDS011;61997;53.974;11.670;2023-03-29T05:37:40;5.15;;;2.20;;
73693;SDS011;61997;53.974;11.670;2023-03-29T05:40:05;3.58;;;2.20;;
73693;SDS011;61997;53.974;11.670;2023-03-29T05:42:34;4.00;;;2.40;;
73693;SDS011;61997;53.974;11.670;2023-03-29T05:45:02;4.45;;;2.40;;
73693;SDS011;61997;53.974;11.670;2023-03-29T05:47:28;3.85;;;1.95;;
73693;SDS011;61997;53.974;11.670;2023-03-29T05:49:53;3.92;;;2.05;;
73693;SDS011;61997;53.974;11.670;2023-03-29T05:52:18;3.70;;;2.40;;
73693;SDS011;61997;53.974;11.670;2023-03-29T05:54:44;4.28;;;2.20;;
73693;SDS011;61997;53.974;11.670;2023-03-29T05:57:09;3.03;;;1.80;;
73693;SDS011;61997;53.974;11.670;2023-03-29T05:59:35;3.90;;;2.17;;
73693;SDS011;61997;53.974;11.670;2023-03-29T06:02:00;3.25;;;1.95;;
73693;SDS011;61997;53.974;11.670;2023-03-29T06:04:29;2.60;;;1.92;;
73693;SDS011;61997;53.974;11.670;2023-03-29T06:06:54;2.90;;;1.70;;
73693;SDS011;61997;53.974;11.670;2023-03-29T06:09:20;4.18;;;1.80;;
73693;SDS011;61997;53.974;11.670;2023-03-29T06:11:46;3.25;;;1.80;;
73693;SDS011;61997;53.974;11.670;2023-03-29T06:14:12;4.00;;;1.92;;
73693;SDS011;61997;53.974;11.670;2023-03-29T06:16:38;2.50;;;2.00;;
73693;SDS011;61997;53.974;11.670;2023-03-29T06:19:04;2.88;;;2.28;;
73693;SDS011;61997;53.974;11.670;2023-03-29T06:21:30;2.97;;;2.00;;
73693;SDS011;61997;53.974;11.670;2023-03-29T06:23:57;2.72;;;1.70;;
73693;SDS011;61997;53.974;11.670;2023-03-29T06:26:23;4.75;;;2.00;;
73693;SDS011;61997;53.974;11.670;2023-03-29T06:28:49;4.25;;;2.13;;
73693;SDS011;61997;53.974;11.670;2023-03-29T06:31:14;3.92;;;1.65;;
73693;SDS011;61997;53.974;11.670;2023-03-29T06:33:40;2.60;;;1.90;;
73693;SDS011;61997;53.974;11.670;2023-03-29T06:36:08;2.97;;;1.70;;
73693;SDS011;61997;53.974;11.670;2023-03-29T06:38:34;3.70;;;1.77;;
73693;SDS011;61997;53.974;11.670;2023-03-29T06:41:00;2.72;;;1.60;;
73693;SDS011;61997;53.974;11.670;2023-03-29T06:43:35;4.78;;;1.92;;
73693;SDS011;61997;53.974;11.670;2023-03-29T06:46:01;3.15;;;1.60;;
73693;SDS011;61997;53.974;11.670;2023-03-29T06:48:27;2.85;;;1.75;;
73693;SDS011;61997;53.974;11.670;2023-03-29T06:50:53;3.10;;;2.00;;
73693;SDS011;61997;53.974;11.670;2023-03-29T06:53:18;2.70;;;1.50;;
73693;SDS011;61997;53.974;11.670;2023-03-29T06:55:44;2.97;;;1.77;;
73693;SDS011;61997;53.974;11.670;2023-03-29T06:58:09;2.63;;;1.83;;
73693;SDS011;61997;53.974;11.670;2023-03-29T07:00:35;2.28;;;1.50;;
73693;SDS011;61997;53.974;11.670;2023-03-29T07:03:04;2.90;;;1.70;;
73693;SDS011;61997;53.974;11.670;2023-03-29T07:05:31;2.45;;;1.48;;
73693;SDS011;61997;53.974;11.670;2023-03-29T07:07:57;2.28;;;1.60;;
73693;SDS011;61997;53.974;11.670;2023-03-29T07:10:38;3.42;;;1.52;;
73693;SDS011;61997;53.974;11.670;2023-03-29T07:13:06;2.30;;;1.48;;
73693;SDS011;61997;53.974;11.670;2023-03-29T07:15:32;3.53;;;1.80;;
73693;SDS011;61997;53.974;11.670;2023-03-29T07:17:58;5.43;;;1.58;;
73693;SDS011;61997;53.974;11.670;2023-03-29T07:20:26;3.08;;;1.58;;
73693;SDS011;61997;53.974;11.670;2023-03-29T07:22:52;2.60;;;1.52;;
73693;SDS011;61997;53.974;11.670;2023-03-29T07:25:18;3.78;;;1.50;;
73693;SDS011;61997;53.974;11.670;2023-03-29T07:27:47;3.35;;;1.63;;
73693;SDS011;61997;53.974;11.670;2023-03-29T07:30:15;2.53;;;1.40;;
73693;SDS011;61997;53.974;11.670;2023-03-29T07:32:42;2.78;;;2.05;;
73693;SDS011;61997;53.974;11.670;2023-03-29T07:35:09;3.00;;;1.48;;
73693;SDS011;61997;53.974;11.670;2023-03-29T07:37:37;2.33;;;1.52;;
73693;SDS011;61997;53.974;11.670;2023-03-29T07:40:04;2.72;;;1.70;;
73693;SDS011;61997;53.974;11.670;2023-03-29T07:42:33;2.30;;;1.48;;
73693;SDS011;61997;53.974;11.670;2023-03-29T07:45:01;3.38;;;1.80;;
73693;SDS011;61997;53.974;11.670;2023-03-29T07:47:31;2.33;;;1.30;;
73693;SDS011;61997;53.974;11.670;2023-03-29T07:49:57;5.43;;;1.85;;
73693;SDS011;61997;53.974;11.670;2023-03-29T07:52:23;1.90;;;1.42;;
73693;SDS011;61997;53.974;11.670;2023-03-29T07:54:49;2.63;;;1.58;;
73693;SDS011;61997;53.974;11.670;2023-03-29T07:57:14;2.72;;;1.60;;
73693;SDS011;61997;53.974;11.670;2023-03-29T07:59:40;2.72;;;1.50;;
73693;SDS011;61997;53.974;11.670;2023-03-29T08:02:07;2.78;;;1.30;;
73693;SDS011;61997;53.974;11.670;2023-03-29T08:04:35;1.70;;;1.10;;
73693;SDS011;61997;53.974;11.670;2023-03-29T08:07:00;2.13;;;1.10;;
73693;SDS011;61997;53.974;11.670;2023-03-29T08:09:26;2.45;;;1.40;;
73693;SDS011;61997;53.974;11.670;2023-03-29T08:11:52;2.63;;;1.52;;
73693;SDS011;61997;53.974;11.670;2023-03-29T08:14:17;3.38;;;1.48;;
73693;SDS011;61997;53.974;11.670;2023-03-29T08:16:43;2.42;;;1.30;;
73693;SDS011;61997;53.974;11.670;2023-03-29T08:19:11;2.72;;;1.60;;
73693;SDS011;61997;53.974;11.670;2023-03-29T08:21:38;2.17;;;1.23;;
73693;SDS011;61997;53.974;11.670;2023-03-29T08:24:04;3.97;;;1.67;;
73693;SDS011;61997;53.974;11.670;2023-03-29T08:26:30;2.80;;;1.55;;
73693;SDS011;61997;53.974;11.670;2023-03-29T08:28:55;1.95;;;1.25;;
73693;SDS011;61997;53.974;11.670;2023-03-29T08:31:21;3.08;;;1.60;;
73693;SDS011;61997;53.974;11.670;2023-03-29T08:33:47;2.65;;;1.33;;
73693;SDS011;61997;53.974;11.670;2023-03-29T08:36:13;2.78;;;1.40;;
73693;SDS011;61997;53.974;11.670;2023-03-29T08:38:38;2.72;;;1.45;;
73693;SDS011;61997;53.974;11.670;2023-03-29T08:41:07;3.13;;;1.40;;
73693;SDS011;61997;53.974;11.670;2023-03-29T08:44:07;3.60;;;1.45;;
73693;SDS011;61997;53.974;11.670;2023-03-29T08:49:59;2.03;;;1.30;;
73693;SDS011;61997;53.974;11.670;2023-03-29T08:54:55;2.70;;;1.40;;
73693;SDS011;61997;53.974;11.670;2023-03-29T08:57:51;2.67;;;1.40;;
73693;SDS011;61997;53.974;11.670;2023-03-29T09:00:18;3.63;;;1.40;;
73693;SDS011;61997;53.974;11.670;2023-03-29T09:02:47;2.42;;;1.27;;
73693;SDS011;61997;53.974;11.670;2023-03-29T09:05:20;2.80;;;1.60;;
73693;SDS011;61997;53.974;11.670;2023-03-29T09:08:01;3.42;;;1.67;;
73693;SDS011;61997;53.974;11.670;2023-03-29T09:10:33;2.83;;;1.25;;
73693;SDS011;61997;53.974;11.670;2023-03-29T09:13:17;2.03;;;1.35;;
73693;SDS011;61997;53.974;11.670;2023-03-29T09:15:51;4.88;;;1.50;;
73693;SDS011;61997;53.974;11.670;2023-03-29T09:18:29;2.50;;;1.52;;
73693;SDS011;61997;53.974;11.670;2023-03-29T09:21:09;3.17;;;1.75;;
73693;SDS011;61997;53.974;11.670;2023-03-29T09:23:45;2.80;;;1.42;;
73693;SDS011;61997;53.974;11.670;2023-03-29T09:31:50;4.05;;;2.25;;
73693;SDS011;61997;53.974;11.670;2023-03-29T09:34:21;3.30;;;1.80;;
73693;SDS011;61997;53.974;11.670;2023-03-29T09:36:54;2.65;;;1.65;;
73693;SDS011;61997;53.974;11.670;2023-03-29T09:39:25;3.17;;;1.70;;
73693;SDS011;61997;53.974;11.670;2023-03-29T09:41:56;4.65;;;1.80;;
73693;SDS011;61997;53.974;11.670;2023-03-29T09:44:31;3.45;;;1.75;;
73693;SDS011;61997;53.974;11.670;2023-03-29T09:47:10;3.47;;;1.95;;
73693;SDS011;61997;53.974;11.670;2023-03-29T09:49:42;4.25;;;1.95;;
73693;SDS011;61997;53.974;11.670;2023-03-29T09:52:14;3.47;;;1.77;;
73693;SDS011;61997;53.974;11.670;2023-03-29T09:54:41;4.10;;;1.90;;
73693;SDS011;61997;53.974;11.670;2023-03-29T09:57:10;4.10;;;2.22;;
73693;SDS011;61997;53.974;11.670;2023-03-29T09:59:39;3.97;;;2.13;;
73693;SDS011;61997;53.974;11.670;2023-03-29T10:02:06;3.30;;;1.77;;
73693;SDS011;61997;53.974;11.670;2023-03-29T10:04:33;3.65;;;1.90;;
73693;SDS011;61997;53.974;11.670;2023-03-29T10:06:59;4.22;;;1.88;;
73693;SDS011;61997;53.974;11.670;2023-03-29T10:09:25;4.10;;;2.33;;
73693;SDS011;61997;53.974;11.670;2023-03-29T10:11:53;3.75;;;2.20;;
73693;SDS011;61997;53.974;11.670;2023-03-29T10:14:28;3.65;;;2.22;;
73693;SDS011;61997;53.974;11.670;2023-03-29T10:19:25;4.38;;;2.40;;
73693;SDS011;61997;53.974;11.670;2023-03-29T10:21:57;4.60;;;2.22;;
73693;SDS011;61997;53.974;11.670;2023-03-29T10:24:25;5.07;;;2.35;;
73693;SDS011;61997;53.974;11.670;2023-03-29T10:26:53;4.70;;;2.42;;
73693;SDS011;61997;53.974;11.670;2023-03-29T10:29:22;5.63;;;2.55;;
73693;SDS011;61997;53.974;11.670;2023-03-29T10:31:49;4.82;;;2.50;;
73693;SDS011;61997;53.974;11.670;2023-03-29T10:34:16;5.40;;;2.35;;
73693;SDS011;61997;53.974;11.670;2023-03-29T10:37:00;4.65;;;2.58;;
73693;SDS011;61997;53.974;11.670;2023-03-29T10:39:28;3.70;;;2.50;;
73693;SDS011;61997;53.974;11.670;2023-03-29T10:41:57;4.75;;;2.80;;
73693;SDS011;61997;53.974;11.670;2023-03-29T10:44:25;6.32;;;2.30;;
73693;SDS011;61997;53.974;11.670;2023-03-29T10:46:52;5.55;;;2.80;;
73693;SDS011;61997;53.974;11.670;2023-03-29T10:49:18;5.10;;;2.72;;
73693;SDS011;61997;53.974;11.670;2023-03-29T10:51:46;5.70;;;3.10;;
73693;SDS011;61997;53.974;11.670;2023-03-29T10:54:17;5.32;;;2.42;;
73693;SDS011;61997;53.974;11.670;2023-03-29T11:12:51;8.25;;;3.45;;
73693;SDS011;61997;53.974;11.670;2023-03-29T11:21:05;6.88;;;4.05;;
73693;SDS011;61997;53.974;11.670;2023-03-29T11:23:48;8.95;;;3.80;;
73693;SDS011;61997;53.974;11.670;2023-03-29T11:26:27;8.77;;;5.22;;
73693;SDS011;61997;53.974;11.670;2023-03-29T11:34:31;8.93;;;5.30;;
73693;SDS011;61997;53.974;11.670;2023-03-29T11:43:06;9.27;;;5.78;;
73693;SDS011;61997;53.974;11.670;2023-03-29T11:45:44;9.52;;;5.65;;
73693;SDS011;61997;53.974;11.670;2023-03-29T11:48:14;11.50;;;6.30;;
73693;SDS011;61997;53.974;11.670;2023-03-29T11:50:58;11.48;;;6.40;;
73693;SDS011;61997;53.974;11.670;2023-03-29T11:59:31;11.30;;;6.15;;
73693;SDS011;61997;53.974;11.670;2023-03-29T12:04:33;15.85;;;7.10;;
73693;SDS011;61997;53.974;11.670;2023-03-29T12:07:13;11.32;;;6.60;;
73693;SDS011;61997;53.974;11.670;2023-03-29T12:10:00;14.07;;;8.05;;
73693;SDS011;61997;53.974;11.670;2023-03-29T12:12:43;13.23;;;7.55;;
73693;SDS011;61997;53.974;11.670;2023-03-29T12:15:18;11.13;;;6.57;;
73693;SDS011;61997;53.974;11.670;2023-03-29T12:17:53;11.82;;;6.85;;
73693;SDS011;61997;53.974;11.670;2023-03-29T12:20:27;12.70;;;6.63;;
73693;SDS011;61997;53.974;11.670;2023-03-29T12:22:55;11.60;;;6.65;;
73693;SDS011;61997;53.974;11.670;2023-03-29T12:25:25;13.15;;;7.43;;
73693;SDS011;61997;53.974;11.670;2023-03-29T12:36:09;14.85;;;7.75;;
73693;SDS011;61997;53.974;11.670;2023-03-29T12:38:55;18.05;;;8.27;;
73693;SDS011;61997;53.974;11.670;2023-03-29T12:41:22;14.93;;;8.10;;
73693;SDS011;61997;53.974;11.670;2023-03-29T12:43:48;15.15;;;9.75;;
73693;SDS011;61997;53.974;11.670;2023-03-29T12:48:43;18.30;;;11.48;;
73693;SDS011;61997;53.974;11.670;2023-03-29T12:51:14;19.77;;;12.00;;
73693;SDS011;61997;53.974;11.670;2023-03-29T12:53:45;21.38;;;12.52;;
73693;SDS011;61997;53.974;11.670;2023-03-29T12:56:15;21.48;;;12.60;;
73693;SDS011;61997;53.974;11.670;2023-03-29T12:58:50;22.23;;;13.43;;
73693;SDS011;61997;53.974;11.670;2023-03-29T13:01:35;22.30;;;13.80;;
73693;SDS011;61997;53.974;11.670;2023-03-29T13:09:26;22.13;;;14.40;;
73693;SDS011;61997;53.974;11.670;2023-03-29T13:12:06;26.38;;;15.50;;
73693;SDS011;61997;53.974;11.670;2023-03-29T13:17:07;28.77;;;15.63;;
73693;SDS011;61997;53.974;11.670;2023-03-29T13:24:45;26.67;;;16.35;;
73693;SDS011;61997;53.974;11.670;2023-03-29T13:27:38;27.42;;;16.83;;
73693;SDS011;61997;53.974;11.670;2023-03-29T13:38:05;27.10;;;16.30;;
73693;SDS011;61997;53.974;11.670;2023-03-29T13:48:26;28.85;;;17.25;;
73693;SDS011;61997;53.974;11.670;2023-03-29T13:50:54;28.02;;;17.13;;
73693;SDS011;61997;53.974;11.670;2023-03-29T13:56:52;27.80;;;16.40;;
73693;SDS011;61997;53.974;11.670;2023-03-29T13:59:26;28.17;;;18.20;;
73693;SDS011;61997;53.974;11.670;2023-03-29T14:01:56;22.83;;;15.98;;
73693;SDS011;61997;53.974;11.670;2023-03-29T14:04:34;25.17;;;16.55;;
73693;SDS011;61997;53.974;11.670;2023-03-29T14:07:02;25.33;;;16.90;;
73693;SDS011;61997;53.974;11.670;2023-03-29T14:09:30;25.40;;;15.20;;
73693;SDS011;61997;53.974;11.670;2023-03-29T14:11:57;26.83;;;16.80;;
73693;SDS011;61997;53.974;11.670;2023-03-29T14:14:24;23.50;;;16.42;;
73693;SDS011;61997;53.974;11.670;2023-03-29T14:16:50;25.63;;;16.58;;
73693;SDS011;61997;53.974;11.670;2023-03-29T14:21:50;24.35;;;15.75;;
73693;SDS011;61997;53.974;11.670;2023-03-29T14:24:20;24.83;;;15.45;;
73693;SDS011;61997;53.974;11.670;2023-03-29T14:26:47;26.58;;;15.98;;
73693;SDS011;61997;53.974;11.670;2023-03-29T14:29:12;28.00;;;15.73;;
73693;SDS011;61997;53.974;11.670;2023-03-29T14:31:39;24.75;;;15.90;;
73693;SDS011;61997;53.974;11.670;2023-03-29T14:34:09;24.60;;;15.73;;
73693;SDS011;61997;53.974;11.670;2023-03-29T14:36:36;25.10;;;15.35;;
73693;SDS011;61997;53.974;11.670;2023-03-29T14:39:03;24.42;;;16.27;;
73693;SDS011;61997;53.974;11.670;2023-03-29T14:41:34;24.60;;;15.45;;
73693;SDS011;61997;53.974;11.670;2023-03-29T14:44:01;23.67;;;16.15;;
73693;SDS011;61997;53.974;11.670;2023-03-29T14:46:27;27.42;;;15.93;;
73693;SDS011;61997;53.974;11.670;2023-03-29T14:48:53;23.23;;;14.82;;
73693;SDS011;61997;53.974;11.670;2023-03-29T14:51:20;25.15;;;15.70;;
73693;SDS011;61997;53.974;11.670;2023-03-29T14:53:51;22.13;;;15.70;;
73693;SDS011;61997;53.974;11.670;2023-03-29T14:56:17;22.08;;;14.77;;
73693;SDS011;61997;53.974;11.670;2023-03-29T14:58:48;22.33;;;14.15;;
73693;SDS011;61997;53.974;11.670;2023-03-29T15:03:41;22.35;;;14.30;;
73693;SDS011;61997;53.974;11.670;2023-03-29T15:06:18;20.13;;;13.68;;
73693;SDS011;61997;53.974;11.670;2023-03-29T15:08:43;21.45;;;14.82;;
73693;SDS011;61997;53.974;11.670;2023-03-29T15:11:13;21.38;;;14.38;;
73693;SDS011;61997;53.974;11.670;2023-03-29T15:13:40;20.77;;;13.30;;
73693;SDS011;61997;53.974;11.670;2023-03-29T15:16:06;19.65;;;15.15;;
73693;SDS011;61997;53.974;11.670;2023-03-29T15:18:33;21.23;;;14.88;;
73693;SDS011;61997;53.974;11.670;2023-03-29T15:21:03;22.15;;;14.25;;
73693;SDS011;61997;53.974;11.670;2023-03-29T15:23:34;18.00;;;13.05;;
73693;SDS011;61997;53.974;11.670;2023-03-29T15:26:11;16.52;;;12.07;;
73693;SDS011;61997;53.974;11.670;2023-03-29T15:28:48;19.38;;;13.77;;
73693;SDS011;61997;53.974;11.670;2023-03-29T15:31:31;19.02;;;11.98;;
73693;SDS011;61997;53.974;11.670;2023-03-29T15:34:05;20.70;;;13.13;;
73693;SDS011;61997;53.974;11.670;2023-03-29T15:36:39;19.63;;;13.20;;
73693;SDS011;61997;53.974;11.670;2023-03-29T15:39:12;20.08;;;12.20;;
73693;SDS011;61997;53.974;11.670;2023-03-29T15:41:40;19.95;;;12.43;;
73693;SDS011;61997;53.974;11.670;2023-03-29T15:44:07;20.58;;;12.70;;
73693;SDS011;61997;53.974;11.670;2023-03-29T15:46:33;17.55;;;12.38;;
73693;SDS011;61997;53.974;11.670;2023-03-29T15:49:02;17.92;;;11.45;;
73693;SDS011;61997;53.974;11.670;2023-03-29T15:51:29;18.83;;;11.93;;
73693;SDS011;61997;53.974;11.670;2023-03-29T15:53:54;17.27;;;12.30;;
73693;SDS011;61997;53.974;11.670;2023-03-29T15:56:19;16.45;;;12.30;;
73693;SDS011;61997;53.974;11.670;2023-03-29T15:58:48;18.60;;;12.30;;
73693;SDS011;61997;53.974;11.670;2023-03-29T16:06:57;16.25;;;11.73;;
73693;SDS011;61997;53.974;11.670;2023-03-29T16:09:23;19.42;;;12.73;;
73693;SDS011;61997;53.974;11.670;2023-03-29T16:11:51;16.85;;;12.02;;
73693;SDS011;61997;53.974;11.670;2023-03-29T16:14:24;18.10;;;11.68;;
73693;SDS011;61997;53.974;11.670;2023-03-29T16:16:54;17.73;;;11.88;;
73693;SDS011;61997;53.974;11.670;2023-03-29T16:19:20;20.95;;;11.88;;
73693;SDS011;61997;53.974;11.670;2023-03-29T16:21:46;16.17;;;11.88;;
73693;SDS011;61997;53.974;11.670;2023-03-29T16:24:12;16.38;;;12.00;;
73693;SDS011;61997;53.974;11.670;2023-03-29T16:26:43;17.00;;;12.30;;
73693;SDS011;61997;53.974;11.670;2023-03-29T16:29:09;20.80;;;12.57;;
73693;SDS011;61997;53.974;11.670;2023-03-29T16:31:35;20.10;;;12.70;;
73693;SDS011;61997;53.974;11.670;2023-03-29T16:34:01;19.25;;;12.35;;
73693;SDS011;61997;53.974;11.670;2023-03-29T16:36:27;19.02;;;12.45;;
73693;SDS011;61997;53.974;11.670;2023-03-29T16:38:54;19.70;;;12.95;;
73693;SDS011;61997;53.974;11.670;2023-03-29T16:41:20;19.38;;;12.07;;
73693;SDS011;61997;53.974;11.670;2023-03-29T16:43:46;19.80;;;12.55;;
73693;SDS011;61997;53.974;11.670;2023-03-29T16:46:12;18.88;;;12.70;;
73693;SDS011;61997;53.974;11.670;2023-03-29T16:48:38;18.48;;;12.05;;
73693;SDS011;61997;53.974;11.670;2023-03-29T16:51:03;18.55;;;13.40;;
73693;SDS011;61997;53.974;11.670;2023-03-29T16:53:29;18.90;;;12.45;;
73693;SDS011;61997;53.974;11.670;2023-03-29T16:55:55;16.55;;;12.20;;